• Join FlightAware (Why Join?)
  • Login
  • US Flag 
05:29AM EDT


 

Airport Tracker/Info


-or-


 

Live Flight TrackerFlight Track Log ✈ N978AC ✈ 13-Apr-2014 ✈ KJCT - E11

Flight Track Log - Related Links

Times and Time Zones

All times are in EDT time to prevent confusion due to time zone crossing. See the N978AC flight status page for this flight to view local times or setup timezone preferences in your user account.

Time Position Orientation Groundspeed Altitude Reporting Facility
EDT Latitude Longitude Course Direction KTS MPH feet Rate Location/Type
01:06PM 30.5303 -99.8117 337° Northwest 94 108 4,000  Level Houston Center
01:07PM 30.5578 -99.8117 360° North 94 108 4,300 300 Climbing Houston Center
01:08PM 30.5850 -99.8114 North 95 109 4,700 420 Climbing Houston Center
01:09PM 30.6111 -99.8278 332° Northwest 93 107 5,200 360 Climbing Houston Center
01:11PM 30.6286 -99.8431 323° Northwest 85 98 5,500 240 Climbing Houston Center
01:12PM 30.5976 -99.8238 337° Northwest  Level FlightAware Approximate
01:12PM 30.6453 -99.8592 320° Northwest 84 97 5,800  Level Houston Center
01:13PM 30.6658 -99.8736 329° Northwest 83 96 6,100 120 Climbing Houston Center
01:14PM 30.6900 -99.8894 331° Northwest 88 101 6,100  Level Houston Center
01:15PM 30.7133 -99.9072 327° Northwest 94 108 6,100 -60 Level Houston Center
01:16PM 30.7406 -99.9283 326° Northwest 95 109 6,000 -60 Descending Houston Center
01:17PM 30.7622 -99.9442 328° Northwest 95 109 6,000  Level Houston Center
01:18PM 30.7828 -99.9597 327° Northwest 94 108 6,000  Level Houston Center
01:19PM 30.8050 -99.9769 326° Northwest 94 108 6,000  Level Houston Center
01:20PM 30.8267 -99.9939 326° Northwest 94 108 6,000  Level Houston Center
01:21PM 30.8539 -100.0139 328° Northwest 94 108 6,000  Level Houston Center
01:22PM 30.8756 -100.0314 325° Northwest 94 108 6,100  Climbing Houston Center
01:23PM 30.8956 -100.0481 324° Northwest 94 108 6,000 -60 Descending Houston Center
01:24PM 30.9128 -100.0675 316° Northwest 92 106 6,000  Level Houston Center
01:25PM 30.9319 -100.0869 319° Northwest 91 105 6,000  Level Houston Center
01:26PM 30.9522 -100.1022 327° Northwest 91 105 6,000  Level Houston Center
01:27PM 30.9789 -100.1206 329° Northwest 91 105 6,100  Climbing Houston Center
01:28PM 30.9997 -100.1356 328° Northwest 91 105 6,100  Level Houston Center
01:29PM 31.0225 -100.1528 327° Northwest 91 105 6,100 -60 Level Houston Center
01:30PM 31.0442 -100.1686 328° Northwest 91 105 6,000 -60 Descending Houston Center
01:31PM 31.0672 -100.1853 328° Northwest 92 106 6,000  Level Houston Center
01:32PM 31.0950 -100.2064 327° Northwest 93 107 6,100  Climbing Houston Center
01:34PM 31.1419 -100.2333 334° Northwest 94 108 6,000 -60 Descending Houston Center
01:35PM 31.1689 -100.2528 328° Northwest 99 114 6,000  Level Fort Worth Center
01:36PM 31.1911 -100.2753 319° Northwest 97 112 6,100  Climbing Fort Worth Center
01:37PM 31.2108 -100.2942 321° Northwest 95 109 6,100  Level Fort Worth Center
01:38PM 31.2300 -100.3128 320° Northwest 89 102 6,100  Level Fort Worth Center
01:40PM 31.2519 -100.3344 320° Northwest 95 109 6,100 -60 Level Fort Worth Center
01:41PM 31.2703 -100.3556 315° West 95 109 6,000 -60 Descending Fort Worth Center
01:42PM 31.2886 -100.3786 313° West 93 107 6,000  Level Fort Worth Center
01:43PM 31.3067 -100.3972 319° Northwest 91 105 6,000  Level Fort Worth Center
01:44PM 31.3294 -100.4133 329° Northwest 90 104 6,100  Climbing Fort Worth Center
01:45PM 31.3497 -100.4286 327° Northwest 89 102 6,000 -60 Descending Fort Worth Center
01:46PM 31.3706 -100.4458 325° Northwest 89 102 6,000  Level Fort Worth Center
01:47PM 31.3836 -100.4653 308° West 83 96 6,000  Level Fort Worth Center
01:48PM 31.3939 -100.4897 296° West 81 93 6,100  Climbing Fort Worth Center
01:49PM 31.4017 -100.5114 293° West 74 85 6,100 -60 Level Fort Worth Center
01:50PM 31.4111 -100.5358 294° West 74 85 6,000 -60 Descending Fort Worth Center
01:51PM 31.4192 -100.5572 294° West 74 85 6,000  Level Fort Worth Center
01:52PM 31.4269 -100.5789 293° West 74 85 6,100  Climbing Fort Worth Center
01:53PM 31.4353 -100.6028 292° West 73 84 6,100  Level Fort Worth Center
01:54PM 31.4431 -100.6256 292° West 74 85 6,100  Level Fort Worth Center
01:55PM 31.4536 -100.6494 297° West 76 87 6,100  Level Fort Worth Center
01:56PM 31.4614 -100.6722 292° West 76 87 6,100  Level Fort Worth Center
01:57PM 31.4694 -100.6969 291° West 76 87 6,100 -60 Level Fort Worth Center
01:58PM 31.4775 -100.7208 292° West 76 87 6,000 -60 Descending Fort Worth Center
01:59PM 31.4853 -100.7461 290° West 77 89 6,000  Level Fort Worth Center
02:00PM 31.4925 -100.7692 290° West 76 87 6,100  Climbing Fort Worth Center
02:01PM 31.5042 -100.7897 304° West 78 90 6,100 -60 Level Fort Worth Center
02:02PM 31.5122 -100.8122 293° West 74 85 6,000 -60 Descending Fort Worth Center
02:03PM 31.5219 -100.8342 297° West 74 85 6,000  Level Fort Worth Center
02:04PM 31.5322 -100.8567 298° West 74 85 6,000  Level Fort Worth Center
02:05PM 31.5419 -100.8772 299° West 73 84 6,100  Climbing Fort Worth Center
02:06PM 31.5422 -100.9014 271° West 71 82 6,100 -60 Level Fort Worth Center
02:07PM 31.5492 -100.9222 291° West 70 81 6,000  Descending Fort Worth Center
02:09PM 31.5597 -100.9433 300° West 70 81 6,100  Climbing Fort Worth Center
02:10PM 31.5703 -100.9636 301° West 72 83 6,000  Descending Fort Worth Center
02:11PM 31.5797 -100.9842 298° West 72 83 6,100  Climbing Fort Worth Center
02:12PM 31.5850 -101.0108 283° West 75 86 6,000 -240 Descending Fort Worth Center
02:13PM 31.5947 -101.0322 298° West 76 87 5,700 -360 Descending Fort Worth Center
02:14PM 31.6053 -101.0589 295° West 81 93 5,300 -300 Descending Fort Worth Center
02:15PM 31.6150 -101.0839 295° West 85 98 5,100 -180 Descending Fort Worth Center
02:16PM 31.6236 -101.1075 293° West 76 87 5,000 -60 Descending Fort Worth Center
02:17PM 31.6328 -101.1303 295° West 77 89 5,000 60 Level Fort Worth Center
02:18PM 31.6408 -101.1556 291° West 77 89 5,200  Climbing Fort Worth Center
02:19PM 31.6469 -101.1850 284° West 92 106 5,000 -120 Descending Fort Worth Center
02:20PM 31.6550 -101.2094 291° West 84 97 5,000  Level Fort Worth Center
02:21PM 31.6647 -101.2300 299° West 69 79 5,000  Level Fort Worth Center
02:22PM 31.6708 -101.2519 288° West 75 86 5,100  Climbing Fort Worth Center
02:23PM 31.6789 -101.2839 287° West 81 93 5,000  Descending Fort Worth Center
02:24PM 31.6900 -101.3078 299° West 81 93 5,100  Climbing Fort Worth Center
02:25PM 31.7008 -101.3361 294° West 85 98 5,100  Level Fort Worth Center
02:26PM 31.7142 -101.3628 300° West 90 104 5,100 -60 Level Fort Worth Center
02:27PM 31.7247 -101.3858 298° West 89 102 5,000 -60 Descending Fort Worth Center
02:28PM 31.7347 -101.4033 304° West 73 84 5,000  Level Fort Worth Center
02:29PM 31.7428 -101.4289 290° West 69 79 5,100 -60 Climbing Fort Worth Center
02:30PM 31.7494 -101.4525 288° West 75 86 4,900 -60 Descending Fort Worth Center
02:31PM 31.7569 -101.4675 300° West 61 70 5,000 60 Climbing Fort Worth Center
02:32PM 31.7631 -101.4858 291° West 61 70 5,100  Climbing Fort Worth Center
02:33PM 31.7661 -101.5081 279° West 65 75 5,100 -120 Level Fort Worth Center
02:34PM 31.7739 -101.5319 291° West 76 87 4,900 -120 Descending Fort Worth Center
02:35PM 31.7889 -101.5494 315° West 68 78 4,900  Level Fort Worth Center
02:36PM 31.8011 -101.5611 321° Northwest 61 70 5,000  Climbing Fort Worth Center
02:37PM 31.8150 -101.5769 316° Northwest 63 72 4,900  Descending Fort Worth Center
02:39PM 31.8283 -101.5919 316° Northwest 66 76 5,000  Climbing Fort Worth Center
02:40PM 31.8378 -101.6097 302° West 66 76 4,900  Descending Fort Worth Center
02:41PM 31.8508 -101.6300 307° West 64 74 5,100 -60 Climbing Fort Worth Center
02:42PM 31.8631 -101.6503 305° West 74 85 4,800  Descending Fort Worth Center
02:43PM 31.8719 -101.6686 300° West 70 81 5,100 60 Climbing Fort Worth Center
02:44PM 31.8817 -101.6889 299° West 69 79 5,000  Descending Fort Worth Center
02:45PM 31.8953 -101.7086 309° West 73 84 5,100 -60 Climbing Fort Worth Center
02:46PM 31.9031 -101.7314 292° West 73 84 4,900 -60 Descending Fort Worth Center
02:47PM 31.9108 -101.7514 295° West 61 70 5,000  Climbing Fort Worth Center
02:48PM 31.9192 -101.7672 302° West 59 68 4,900 -60 Descending Fort Worth Center
02:49PM 31.9206 -101.7817 276° West 60 69 4,900 60 Level Fort Worth Center
02:50PM 31.9100 -101.7914 218° Southwest 59 68 5,100 60 Climbing Fort Worth Center
02:52PM 31.9058 -101.8322 285° West 57 66 5,100 -60 Level Fort Worth Center
02:53PM 31.8975 -101.8536 245° Southwest 66 76 5,000  Descending Fort Worth Center
02:54PM 31.8892 -101.8725 243° Southwest 69 79 5,100 -60 Climbing Fort Worth Center
02:55PM 31.8831 -101.8956 253° West 69 79 4,900 -60 Descending Fort Worth Center
02:56PM 31.8764 -101.9153 248° West 69 79 5,000 60 Climbing Fort Worth Center
02:57PM 31.8675 -101.9319 238° Southwest 67 77 5,100  Climbing Fort Worth Center
02:58PM 31.8567 -101.9539 240° Southwest 64 74 5,000 -120 Descending Fort Worth Center
02:59PM 31.8617 -101.9739 286° West 68 78 4,900 60 Descending Fort Worth Center
03:00PM 31.8664 -101.9908 288° West 60 69 5,200 60 Climbing Fort Worth Center
03:01PM 31.8731 -102.0119 290° West 60 69 5,100 -120 Descending Fort Worth Center
03:02PM 31.8808 -102.0372 290° West 70 81 5,000 -120 Descending Fort Worth Center
03:03PM 31.8917 -102.0600 299° West 76 87 4,900 -240 Descending Fort Worth Center
03:04PM 31.8983 -102.0797 292° West 67 77 4,600  Descending Fort Worth Center
03:05PM 31.9044 -102.0981 291° West 64 74 4,900 -300 Climbing Fort Worth Center
03:06PM 31.9153 -102.1200 300° West 66 76 4,100 -540 Descending Fort Worth Center
03:07PM 31.9225 -102.1453 289° West 75 86 3,800 -360 Descending Fort Worth Center
03:09PM 31.9308 -102.1686 293° West 75 86 3,400 -360 Descending Fort Worth Center
03:10PM 31.9389 -102.1908 293° West 75 86 3,100 -300 Descending Fort Worth Center